Prochaines Courses

Connexion

Trail de la Faience 10Km

10 Km Trail de la Faience du 20/04/14 (Reelle 9)
Rang Dossard Nom Prénom Temps Cat Rang Cat Ecart Ecart Cat Club Vitesse Km/h Temps au Km
1 651 DUHAMEL Alain 00:37:48 V1M 1 00:00:00 00:00:00 Touquet trail nature 14,286 04:12
2 723 RENAUX FREDERIC 00:37:53 SEM 1 00:00:05 00:00:00 BLANC NEZ TRIATHLON 14,254 04:13
3 626 BOURDON GILBERT 00:37:56 SEM 2 00:00:08 00:00:03   14,236 04:13
4 758 SBARDELLA François 00:38:01 SEM 3 00:00:13 00:00:08 BLANC NEZ TRIATHLON 14,204 04:13
5 637 COURONNEL Jérôme 00:39:27 V1M 2 00:01:39 00:01:39 Touquet Trail Nature 13,688 04:23
6 647 DOCQUOIS Frédéric 00:39:43 V1M 3 00:01:55 00:01:55 Le Drapeau 13,596 04:25
7 769 RAY SAMUEL 00:40:24 V1M 4 00:02:36 00:02:36   13,366 04:29
8 672 HAIGNERE William 00:40:30 SEM 4 00:02:42 00:02:37 CERMIX 13,333 04:30
9 601 ACCARIE Rémi 00:40:33 JUM 1 00:02:45 00:00:00   13,317 04:30
10 763 REMBUR François 00:40:48 SEM 5 00:03:00 00:02:55 Sport Evasion des 2 Caps 13,235 04:32
11 682 LAVOINE Fabien 00:40:53 V1M 5 00:03:05 00:03:05 MARCK'ATHLON 13,208 04:33
12 648 DUBOIS TONY 00:41:00 V1M 6 00:03:12 00:03:12 MARCK'ATHLON 13,171 04:33
13 603 ANDRIEUX Dimitri 00:41:35 SEM 6 00:03:47 00:03:42 Marckathlon 12,986 04:37
14 766 GRESSIER Pascal 00:41:47 SEM 7 00:03:59 00:03:54 Marckathlon 12,924 04:39
15 645 DEPLAGNE QUENTIN 00:41:53 SEM 8 00:04:05 00:04:00   12,893 04:39
16 663 GOBERT Ludovic 00:42:01 SEM 9 00:04:13 00:04:08 CS Nesles 12,852 04:40
17 684 LEBEC Mickael 00:42:03 SEM 10 00:04:15 00:04:10 Team Trail 62 12,842 04:40
18 781 PODEVIN Eric 00:42:14 SEM 11 00:04:26 00:04:21   12,786 04:42
19 726 ROBART EDDY 00:42:27 V1M 7 00:04:39 00:04:39   12,721 04:43
20 750 MALBRANQUE Jacky 00:42:33 V3M 1 00:04:45 00:00:00 Club jogging ardrésien 12,691 04:44
21 625 BOURDON Cyrille 00:42:35 SEM 12 00:04:47 00:04:42 Colembert 12,681 04:44
22 776 DELAVIEZ Jean Marc 00:42:48 V2M 1 00:05:00 00:00:00 Frévent 12,617 04:45
23 650 DUFOUR Antoine 00:42:53 SEM 13 00:05:05 00:05:00 CS Nesles 12,592 04:46
24 646 DEWEER Nicolas 00:42:59 SEM 14 00:05:11 00:05:06   12,563 04:47
25 638 COURONNEL Romain 00:43:11 JUM 2 00:05:23 00:02:38 Touquet Trail Nature 12,505 04:48
26 634 CHARTAUX Raphael 00:43:19 V1M 8 00:05:31 00:05:31 CS Nesles 12,466 04:49
27 761 CHAUCHOY Loic 00:43:20 SEM 15 00:05:32 00:05:27 Colembert 12,462 04:49
28 780 LAMBERT Guillaume 00:43:40 SEM 16 00:05:52 00:05:47   12,366 04:51
29 730 SAULNIER François 00:43:59 SEM 17 00:06:11 00:06:06   12,277 04:53
30 641 DEFIENNES Claude 00:44:01 V3M 2 00:06:13 00:01:28 AC Outreau 12,268 04:53
31 744 WAY STEPHANE 00:44:06 V1M 9 00:06:18 00:06:18   12,245 04:54
32 777 FORYCKI X 00:44:53 SEM 18 00:07:05 00:07:00   12,031 04:59
33 713 NEUVILLE VINCENT 00:45:03 SEM 19 00:07:15 00:07:10   11,987 05:00
34 680 LACHERÉ JOHANN 00:45:04 SEM 20 00:07:16 00:07:11   11,982 05:00
35 673 HANON Jean-Pierre 00:45:44 V2M 2 00:07:56 00:02:56 Le Drapeau 11,808 05:05
36 631 CANNIE Franck 00:45:47 V1M 10 00:07:59 00:07:59   11,795 05:05
37 701 MAGNIER Maxence 00:45:49 SEM 21 00:08:01 00:07:56   11,786 05:05
38 627 BOUTIN QUENTIN 00:45:56 SEM 22 00:08:08 00:08:03   11,756 05:06
39 619 BOBBEE Nathalie 00:45:56 V1F 1 00:08:08 00:00:00 AC Outreau 11,756 05:06
40 772 MARMIN Guillaume 00:46:06 SEM 23 00:08:18 00:08:13   11,714 05:07
41 658 GANGEMI FRANÇOIS 00:46:20 SEM 24 00:08:32 00:08:27   11,655 05:09
42 649 DUCROCQ GRÉGORY 00:46:20 SEM 25 00:08:32 00:08:27   11,655 05:09
43 762 LENGAGNE Karl 00:46:26 V1M 11 00:08:38 00:08:38   11,630 05:10
44 745 POULLY Kévin 00:46:38 CAM 1 00:08:50 00:00:00 Team Trail 62 11,580 05:11
45 716 NUNS Hubert 00:46:38 CAM 2 00:08:50 00:00:00   11,580 05:11
46 778 DELATTRE Jonathan 00:46:40 SEM 26 00:08:52 00:08:47   11,571 05:11
47 760 DAGNEAUX Fabien 00:46:52 V1M 12 00:09:04 00:09:04   11,522 05:12
48 678 JOURDANT EMMANUELLE 00:46:57 SEF 1 00:09:09 00:00:00 OSA AIRE SUR LA LYS 11,502 05:13
49 785 ROBLIN Jeremy 00:47:00 SEM 27 00:09:12 00:09:07   11,489 05:13
50 748 BRUME Bruno 00:47:01 V2M 3 00:09:13 00:04:13 Le Drapeau 11,485 05:13
51 767 TELLIER Eric 00:47:17 SEM 28 00:09:29 00:09:24   11,421 05:15
52 700 MAGNIER Peter 00:48:03 V1M 13 00:10:15 00:10:15   11,238 05:20
53 747 WASIAK Richard 00:48:04 V1M 14 00:10:16 00:10:16 JULBO FAMILLY 11,234 05:20
54 692 LELEU Jean François 00:48:09 V2M 4 00:10:21 00:05:21   11,215 05:21
55 782 EVRARD Denis 00:48:23 V1M 15 00:10:35 00:10:35   11,161 05:23
56 669 GRESSIER Yannick 00:48:31 V1M 16 00:10:43 00:10:43 Le Drapeau 11,130 05:23
57 602 ACCARIE David 00:48:41 V1M 17 00:10:53 00:10:53   11,092 05:25
58 789 SAILLY Eric 00:48:43 SEM 29 00:10:55 00:10:50   11,085 05:25
59 773 LIGNIER Germain 00:48:48 SEM 30 00:11:00 00:10:55   11,066 05:25
60 630 CALON Christian 00:48:52 V2M 5 00:11:04 00:06:04 AC Outreau 11,050 05:26
61 665 GODET Jérome 00:48:59 V1M 18 00:11:11 00:11:11   11,024 05:27
62 615 BERTOUX Guillaume 00:49:03 SEM 31 00:11:15 00:11:10 Sport Evasion des 2 Caps 11,009 05:27
63 671 GUILLEMARD RÉGINALD 00:49:08 V1M 19 00:11:20 00:11:20   10,991 05:28
64 738 THOMAS LYDIVINE 00:49:09 SEF 2 00:11:21 00:02:12   10,987 05:28
65 787 BAILLET Antoine 00:49:21 JUM 3 00:11:33 00:08:48 Sport plus 10,942 05:29
66 683 LE GOFF SAMUEL 00:49:24 SEM 32 00:11:36 00:11:31   10,931 05:29
67 609 BANCHEREAU BENJAMIN 00:49:35 SEM 33 00:11:47 00:11:42   10,891 05:31
68 741 VIEQUE Karine 00:49:36 V1F 2 00:11:48 00:03:40 Les Tyrannosaures 10,887 05:31
69 784 LEJOSNE Alexandre 00:49:38 SEM 34 00:11:50 00:11:45 R Tribe 10,880 05:31
70 635 CHRETIEN JEAN MICHEL 00:49:59 V1M 20 00:12:11 00:12:11   10,804 05:33
71 717 PÂQUES Eric 00:50:11 V2M 6 00:12:23 00:07:23 Le Drapeau 10,761 05:35
72 752 DEBAS Gérard 00:50:32 V3M 3 00:12:44 00:07:59 US SAMER Cyclo 10,686 05:37
73 755 TABARY RÉMI 00:50:38 SEM 35 00:12:50 00:12:45 FIVES DMS 10,665 05:38
74 790 DEFACHELLE Geoffrey 00:50:39 SEM 36 00:12:51 00:12:46   10,661 05:38
75 783 LEJOSNE Luc 00:50:41 V2M 7 00:12:53 00:07:53 R Tribe 10,654 05:38
76 677 JANKIEWICZ STANISLAS 00:50:49 V2M 8 00:13:01 00:08:01   10,626 05:39
77 610 BEAUMONT VINCENT 00:51:53 SEM 37 00:14:05 00:14:00   10,408 05:46
78 616 BILLIET Adrien 00:51:59 SEM 38 00:14:11 00:14:06   10,388 05:47
79 699 MAGNIER Gaetan 00:52:04 SEM 39 00:14:16 00:14:11   10,371 05:47
80 768 RAY Isabelle 00:52:05 SEF 3 00:14:17 00:05:08 Culture danse étaples 10,368 05:47
81 666 GOLLIOT Sébastien 00:52:06 V1M 21 00:14:18 00:14:18 Jogging Club Licquois 10,365 05:47
82 714 NOURTIER Gaëtan 00:52:09 CAM 3 00:14:21 00:05:31 La Caloterie 10,355 05:48
83 721 QUANDALLE Christophe 00:52:15 V2M 9 00:14:27 00:09:27 CERMIX 10,335 05:48
84 623 BOUDRINGHEN Camille 00:52:15 SEF 4 00:14:27 00:05:18 Jogging Club Licquois 10,335 05:48
85 698 LOOSE FRÉDÉRIC 00:52:38 SEM 40 00:14:50 00:14:45   10,260 05:51
86 770 DAVERTON Aurélie 00:52:42 SEF 5 00:14:54 00:05:45 Bourthes 10,247 05:51
87 617 BLONDEL THOMAS 00:52:43 SEM 41 00:14:55 00:14:50   10,243 05:51
88 775 DEBOVE Jean Marc 00:52:52 V3M 4 00:15:04 00:10:19   10,214 05:52
89 764 PRUVOST Etienne 00:52:56 SEM 42 00:15:08 00:15:03   10,202 05:53
90 628 BREBANT CHRISTOPHE 00:53:03 SEM 43 00:15:15 00:15:10   10,179 05:54
91 686 LECERF BASTIEN 00:53:11 SEM 44 00:15:23 00:15:18   10,154 05:55
92 604 AUBERT PATRICK 00:53:20 V3M 5 00:15:32 00:10:47   10,125 05:56
93 674 HANON Liliane 00:53:33 V2F 1 00:15:45 00:00:00 Le Drapeau 10,084 05:57
94 740 VEILLARD Eugène 00:53:42 V4M 1 00:15:54 00:00:00   10,056 05:58
95 757 GINGUENE Marc 00:53:43 V1M 22 00:15:55 00:15:55   10,053 05:58
96 668 GONZALEZ MEDINA JOSE 00:53:51 V2M 10 00:16:03 00:11:03   10,028 05:59
97 659 GATOUX JEAN PAUL 00:54:08 V1M 23 00:16:20 00:16:20 ASEC80 9,975 06:01
98 734 SIKORA RÉMI 00:54:22 SEM 45 00:16:34 00:16:29   9,933 06:02
99 661 GERME Yohan 00:54:45 SEM 46 00:16:57 00:16:52   9,863 06:05
100 605 AUBERT MAGALI 00:54:50 SEF 6 00:17:02 00:07:53   9,848 06:06
101 739 VAILLANT PATRICE 00:54:51 V2M 11 00:17:03 00:12:03   9,845 06:06
102 643 DEGOUSEE GREGORY 00:55:07 SEM 47 00:17:19 00:17:14   9,797 06:07
103 688 LEGRAND FRANCK 00:55:50 SEM 48 00:18:02 00:17:57   9,672 06:12
104 690 LEGUAY MARIANICK 00:55:53 SEF 7 00:18:05 00:08:56   9,663 06:13
105 710 MARIQUE Perrine 00:56:06 SEF 8 00:18:18 00:09:09 CERMIX 9,626 06:14
106 751 LEJEUNE Franck 00:56:11 V1M 24 00:18:23 00:18:23   9,611 06:15
107 759 LOTH Stéphane 00:56:11 SEM 49 00:18:23 00:18:18   9,611 06:15
108 685 LEBEGUE Thérèse 00:56:13 V2F 2 00:18:25 00:02:40 Le Drapeau 9,606 06:15
109 706 MAILLET Vincent 00:56:19 SEM 50 00:18:31 00:18:26 Les foulées ardrésiennes 9,589 06:15
110 667 GONZALEZ MEDINA PABLO 00:56:20 CAM 4 00:18:32 00:09:42   9,586 06:16
111 705 MAILLET Marc 00:56:21 SEM 51 00:18:33 00:18:28 Foulées ardrésiennes 9,583 06:16
112 629 BUCHET Laurence 00:56:22 SEF 9 00:18:34 00:09:25 Culture danse étaples 9,580 06:16
113 607 BAILLARD Maryline 00:56:32 V1F 3 00:18:44 00:10:36 Touquet Trail Nature 9,552 06:17
114 687 LEGRAND OLIVIER 00:56:36 V1M 25 00:18:48 00:18:48   9,541 06:17
115 728 ROUX Florence 00:56:43 SEF 10 00:18:55 00:09:46 AC Outreau 9,521 06:18
116 737 THIRARD ROMARIC 00:56:56 SEM 52 00:19:08 00:19:03   9,485 06:20
117 788 DE BRYE Sophie 00:56:56 V2M 12 00:19:08 00:14:08   9,485 06:20
118 729 ROUX THOMAS 00:56:58 SEM 53 00:19:10 00:19:05   9,479 06:20
119 681 LANCE Freddy 00:57:14 V1M 26 00:19:26 00:19:26   9,435 06:22
120 746 BAILLY Isabelle 00:57:15 V1F 4 00:19:27 00:11:19   9,432 06:22
121 676 HODIQUE Myriam 00:57:31 SEF 11 00:19:43 00:10:34 Team Trail 62 9,389 06:23
122 657 FACHAUX Angélique 00:57:36 SEF 12 00:19:48 00:10:39 CERMIX 9,375 06:24
123 694 L'HOTEL PAULINE 00:57:38 SEF 13 00:19:50 00:10:41   9,370 06:24
124 622 BOUCHAIN DIDIER 00:57:45 V2M 13 00:19:57 00:14:57   9,351 06:25
125 733 SERGENT Laurent 00:57:58 V2M 14 00:20:10 00:15:10 Colembert 9,316 06:26
126 774 DEBOVE Béatrice 00:57:59 V2F 3 00:20:11 00:04:26   9,313 06:27
127 724 RINGARD JULIEN 00:57:59 SEM 54 00:20:11 00:20:06   9,313 06:27
128 689 LEGRAND MARTIN 00:58:03 SEM 55 00:20:15 00:20:10   9,302 06:27
129 644 DEPLAGNE MICKAËL 00:58:04 SEM 56 00:20:16 00:20:11   9,300 06:27
130 613 BERNACKI Clémence 00:58:25 CAF 1 00:20:37 00:00:00   9,244 06:29
131 614 BERNACKI Lydie 00:58:26 V1F 5 00:20:38 00:12:30   9,241 06:30
132 719 PINTE Meggy 00:58:33 CAF 2 00:20:45 00:00:08 Desvres danse 9,223 06:30
133 640 WARTELLE Nathalie 00:58:48 SEF 14 00:21:00 00:11:51   9,184 06:32
134 620 BOCHU MICHEL 00:59:09 V1M 27 00:21:21 00:21:21   9,129 06:34
135 722 QUEVAL STEPHANIE 00:59:19 V1F 6 00:21:31 00:13:23   9,104 06:35
136 731 SCOTTE AURELIEN 00:59:35 SEM 57 00:21:47 00:21:42   9,063 06:37
137 670 GRESSIER Delphine 00:59:43 V1F 7 00:21:55 00:13:47 Le Drapeau 9,043 06:38
138 636 COLIN Richard 00:59:44 V3M 6 00:21:56 00:17:11 ASUD 9,040 06:38
139 732 SENTUNE Laura 00:59:49 SEF 15 00:22:01 00:12:52 Touquet Trail Nature 9,028 06:39
140 655 DUSANNIER CÉCILE 00:59:56 SEF 16 00:22:08 00:12:59   9,010 06:40
141 693 LEMAIRE ANOUCHKA 00:59:57 SEF 17 00:22:09 00:13:00 WIMEREUX RUNNING CLUB 9,008 06:40
142 707 MAILLY Noel 01:00:52 V3M 7 00:23:04 00:18:19   8,872 06:46
143 754 RAUX André 01:00:57 V3M 8 00:23:09 00:18:24   8,860 06:46
144 639 DAVISTER MARYLINE 01:01:36 V2F 4 00:23:48 00:08:03   8,766 06:51
145 695 LIEGEOIS GAELLE 01:01:55 SEF 18 00:24:07 00:14:58   8,721 06:53
146 765 PRUVOST Marie Cécile 01:02:23 V3F 1 00:24:35 00:00:00   8,656 06:56
147 664 GOBIN Zarko 01:02:25 V3M 9 00:24:37 00:19:52 Triathlon Littoral 59 8,652 06:56
148 753 DEBOVE Isabelle 01:02:33 V2F 5 00:24:45 00:09:00   8,633 06:57
149 786 BAILLET Laura 01:02:35 SEF 19 00:24:47 00:15:38   8,628 06:57
150 632 CARON CATHERINE 01:02:46 V2F 6 00:24:58 00:09:13   8,603 06:58
151 652 DUPREZ Christophe 01:02:55 V1M 28 00:25:07 00:25:07 Bonningues athlétisme 8,583 06:59
152 696 LOIEZ Sophie 01:02:55 V1F 8 00:25:07 00:16:59 Bonningues athlétisme 8,583 06:59
153 612 BERNACKI Jean-Luc 01:03:27 V1M 29 00:25:39 00:25:39   8,511 07:03
154 735 SOUPE Christelle 01:04:18 V1F 9 00:26:30 00:18:22 ASUD 8,398 07:09
155 756 LEBLANC Diane 01:04:41 SEF 20 00:26:53 00:17:44   8,348 07:11
156 703 MAHIEU Marie-Christine 01:06:38 V2F 7 00:28:50 00:13:05   8,104 07:24
157 702 MAHIEU Michel 01:06:39 V2M 15 00:28:51 00:23:51   8,102 07:24
158 749 LEPRETRE Sévirine 01:06:43 V1F 10 00:28:55 00:20:47   8,094 07:25
159 715 NUNS Fabienne 01:06:45 V1F 11 00:28:57 00:20:49   8,090 07:25
160 697 LOISON ANNE 01:07:09 SEF 21 00:29:21 00:20:12   8,042 07:28
161 608 BALY ADRIEN 01:07:10 SEM 58 00:29:22 00:29:17   8,040 07:28
162 621 BOIN BETTY 01:08:34 V1F 12 00:30:46 00:22:38   7,876 07:37
163 660 GEERAERT Isabelle 01:08:43 V1F 13 00:30:55 00:22:47 AS Marck 7,858 07:38
164 727 ROUTTIER SYLVIE 01:09:02 SEF 22 00:31:14 00:22:05   7,822 07:40
165 720 POURRE MÉLANIE 01:09:23 SEF 23 00:31:35 00:22:26   7,783 07:43
166 654 DUQUENOY David 01:12:28 SEM 59 00:34:40 00:34:35 Foulées ardrésiennes 7,452 08:03
167 653 DUQUENOY Hélène 01:12:28 SEF 24 00:34:40 00:25:31 Foulées ardrésiennes 7,452 08:03
168 708 MANCEBO MARIE CHRISTINE 01:12:36 V2F 8 00:34:48 00:19:03 LAGNY OMNISPORTS 7,438 08:04
169 709 MANCEBO MARIANO 01:12:36 V2M 16 00:34:48 00:29:48 LAGNY OMNISPORTS 7,438 08:04
170 662 GLACON Patrick 01:14:48 V3M 10 00:37:00 00:32:15   7,219 08:19
171 711 MODOLO Fanny 01:15:57 V1F 14 00:38:09 00:30:01   7,110 08:26
172 742 VILETTE Nathalie 01:15:57 V1F 15 00:38:09 00:30:01   7,110 08:26